Time;durP1;ratioP1;P1;durP2;ratioP2;P2;SDS_P1;SDS_P2;PMS_P1;PMS_P2;Temp;Humidity;BMP_temperature;BMP_pressure;BME280_temperature;BME280_humidity;BME280_pressure;Samples;Min_cycle;Max_cycle;Signal;HPM_P1;HPM_P2
2022/03/14 00:00:44;;;;;;;26.10;15.30;;;;;;;;;;5095042;28;20142;-62
2022/03/14 00:03:11;;;;;;;21.40;14.38;;;;;;;;;;5093698;28;20055;-62
2022/03/14 00:05:37;;;;;;;20.38;14.23;;;;;;;;;;5071911;28;20109;-62
2022/03/14 00:08:04;;;;;;;21.75;14.52;;;;;;;;;;5083458;28;20397;-62
2022/03/14 00:10:30;;;;;;;23.15;15.88;;;;;;;;;;5069646;28;20036;-62
2022/03/14 00:12:58;;;;;;;24.75;14.20;;;;;;;;;;5089322;28;20036;-62
2022/03/14 00:15:30;;;;;;;22.10;14.77;;;;;;;;;;5091302;28;20049;-63
2022/03/14 00:17:57;;;;;;;22.65;15.23;;;;;;;;;;5092883;28;20179;-62
2022/03/14 00:20:24;;;;;;;22.23;14.50;;;;;;;;;;5092564;28;20506;-62
2022/03/14 00:22:51;;;;;;;24.55;15.40;;;;;;;;;;5094536;28;20051;-62
2022/03/14 00:25:17;;;;;;;22.80;15.77;;;;;;;;;;5075706;28;20506;-62
2022/03/14 00:27:43;;;;;;;25.67;15.02;;;;;;;;;;5093139;28;20052;-62
2022/03/14 00:30:10;;;;;;;20.25;14.52;;;;;;;;;;5093639;28;20483;-62
2022/03/14 00:32:37;;;;;;;22.77;15.32;;;;;;;;;;5097975;28;20058;-62
2022/03/14 00:35:04;;;;;;;20.08;13.65;;;;;;;;;;5095153;28;20046;-62
2022/03/14 00:37:30;;;;;;;21.70;14.75;;;;;;;;;;5080918;28;20055;-62
2022/03/14 00:39:57;;;;;;;22.85;14.32;;;;;;;;;;5075185;28;20044;-61
2022/03/14 00:42:25;;;;;;;21.20;13.68;;;;;;;;;;5058157;28;20040;-62
2022/03/14 00:44:51;;;;;;;21.65;14.48;;;;;;;;;;5093353;28;20506;-62
2022/03/14 00:47:19;;;;;;;24.48;14.57;;;;;;;;;;5074938;28;20097;-62
2022/03/14 00:49:46;;;;;;;20.92;13.27;;;;;;;;;;5090440;28;20499;-62
2022/03/14 00:52:12;;;;;;;19.75;13.63;;;;;;;;;;5092983;28;20113;-62
2022/03/14 00:54:38;;;;;;;22.60;14.93;;;;;;;;;;5092646;28;20055;-62
2022/03/14 00:57:05;;;;;;;20.92;14.25;;;;;;;;;;5074134;28;20486;-62
2022/03/14 00:59:31;;;;;;;22.33;14.10;;;;;;;;;;5093134;28;20059;-62
2022/03/14 01:01:58;;;;;;;21.80;14.43;;;;;;;;;;5092234;28;20043;-62
2022/03/14 01:04:24;;;;;;;21.45;13.65;;;;;;;;;;5092770;28;20088;-62
2022/03/14 01:06:50;;;;;;;22.90;14.45;;;;;;;;;;5113177;27;20040;-62
2022/03/14 01:09:16;;;;;;;22.10;14.00;;;;;;;;;;5074427;28;20165;-62
2022/03/14 01:11:42;;;;;;;19.77;13.50;;;;;;;;;;5092099;28;20437;-62
2022/03/14 01:14:09;;;;;;;21.52;13.98;;;;;;;;;;5067529;28;20052;-62
2022/03/14 01:16:37;;;;;;;21.75;14.20;;;;;;;;;;5086976;28;20084;-62
2022/03/14 01:19:03;;;;;;;23.10;14.48;;;;;;;;;;5099758;28;20055;-62
2022/03/14 01:21:29;;;;;;;26.40;13.38;;;;;;;;;;5073984;28;20067;-62
2022/03/14 01:23:56;;;;;;;21.58;14.30;;;;;;;;;;5091925;28;20119;-62
2022/03/14 01:26:22;;;;;;;19.88;13.77;;;;;;;;;;5093196;28;20174;-62
2022/03/14 01:28:48;;;;;;;23.17;14.18;;;;;;;;;;5093025;28;20076;-62
2022/03/14 01:31:15;;;;;;;21.67;13.65;;;;;;;;;;5074489;28;20043;-62
2022/03/14 01:33:41;;;;;;;20.92;13.35;;;;;;;;;;5061801;28;20495;-62
2022/03/14 01:36:07;;;;;;;20.92;14.23;;;;;;;;;;5093109;28;20376;-62
2022/03/14 01:38:33;;;;;;;20.58;13.50;;;;;;;;;;5092811;28;20048;-62
2022/03/14 01:40:59;;;;;;;22.92;13.70;;;;;;;;;;5103495;28;20039;-62
2022/03/14 01:43:26;;;;;;;18.77;13.07;;;;;;;;;;5073890;28;20059;-62
2022/03/14 01:45:57;;;;;;;20.95;13.50;;;;;;;;;;5091416;28;20050;-62
2022/03/14 01:48:23;;;;;;;17.90;13.43;;;;;;;;;;5073759;28;20043;-62
2022/03/14 01:50:50;;;;;;;21.20;12.68;;;;;;;;;;5092509;28;20031;-62
2022/03/14 01:53:17;;;;;;;19.58;13.05;;;;;;;;;;5091322;28;20089;-63
2022/03/14 01:55:44;;;;;;;18.80;12.45;;;;;;;;;;5092167;28;20562;-62
2022/03/14 01:58:10;;;;;;;18.67;12.95;;;;;;;;;;5092093;28;20119;-62
2022/03/14 02:00:36;;;;;;;19.73;13.32;;;;;;;;;;5074832;28;20058;-62
2022/03/14 02:03:02;;;;;;;20.35;13.95;;;;;;;;;;5072526;28;20499;-62
2022/03/14 02:05:28;;;;;;;19.42;13.38;;;;;;;;;;5091800;28;20638;-62
2022/03/14 02:07:57;;;;;;;22.38;13.57;;;;;;;;;;5090863;28;20063;-62
2022/03/14 02:10:23;;;;;;;24.05;14.13;;;;;;;;;;5071577;28;20380;-62
2022/03/14 02:12:49;;;;;;;17.30;12.20;;;;;;;;;;5074112;28;20044;-62
2022/03/14 02:15:15;;;;;;;18.45;12.90;;;;;;;;;;5091746;28;20050;-62
2022/03/14 02:17:41;;;;;;;22.38;13.73;;;;;;;;;;5069776;28;20048;-62
2022/03/14 02:20:08;;;;;;;21.10;13.75;;;;;;;;;;5091485;28;20075;-62
2022/03/14 02:22:34;;;;;;;21.98;14.02;;;;;;;;;;5070012;28;20163;-62
2022/03/14 02:25:01;;;;;;;17.58;13.02;;;;;;;;;;5073080;28;20076;-62
2022/03/14 02:27:27;;;;;;;20.38;14.27;;;;;;;;;;5075882;28;20534;-62
2022/03/14 02:29:53;;;;;;;20.23;13.95;;;;;;;;;;5075715;28;20044;-62
2022/03/14 02:32:20;;;;;;;20.90;14.07;;;;;;;;;;5100710;28;20047;-62
2022/03/14 02:34:46;;;;;;;23.42;15.25;;;;;;;;;;5095726;28;20082;-61
2022/03/14 02:37:12;;;;;;;27.23;14.63;;;;;;;;;;5070060;28;20059;-62
2022/03/14 02:39:38;;;;;;;21.55;15.32;;;;;;;;;;5077321;28;20062;-62
2022/03/14 02:42:06;;;;;;;32.50;15.23;;;;;;;;;;5088122;28;20152;-62
2022/03/14 02:44:32;;;;;;;23.65;14.98;;;;;;;;;;5092133;28;20036;-62
2022/03/14 02:46:58;;;;;;;20.80;14.80;;;;;;;;;;5090215;28;20051;-62
2022/03/14 02:49:24;;;;;;;20.55;14.65;;;;;;;;;;5089726;28;20532;-62
2022/03/14 02:51:52;;;;;;;24.55;15.55;;;;;;;;;;5091861;28;20036;-61
2022/03/14 02:54:19;;;;;;;23.90;15.27;;;;;;;;;;5101606;28;20083;-62
2022/03/14 02:56:45;;;;;;;22.83;14.93;;;;;;;;;;5090309;28;20667;-62
2022/03/14 02:59:11;;;;;;;23.92;16.27;;;;;;;;;;5091424;28;20076;-62
2022/03/14 03:01:37;;;;;;;23.02;16.42;;;;;;;;;;5078183;28;20169;-62
2022/03/14 03:04:05;;;;;;;28.20;16.58;;;;;;;;;;5076116;28;20044;-62
2022/03/14 03:06:32;;;;;;;21.98;15.20;;;;;;;;;;5093122;28;20047;-62
2022/03/14 03:08:59;;;;;;;30.98;16.95;;;;;;;;;;5089961;28;20040;-62
2022/03/14 03:11:25;;;;;;;22.02;15.30;;;;;;;;;;5091547;28;20039;-62
2022/03/14 03:13:54;;;;;;;24.88;14.75;;;;;;;;;;5087210;28;20044;-62
2022/03/14 03:16:21;;;;;;;25.70;15.45;;;;;;;;;;5094004;28;20431;-62
2022/03/14 03:18:47;;;;;;;23.52;14.90;;;;;;;;;;5091054;28;20048;-62
2022/03/14 03:21:14;;;;;;;23.67;15.48;;;;;;;;;;5074775;28;20072;-62
2022/03/14 03:23:41;;;;;;;22.67;15.27;;;;;;;;;;5110299;27;20059;-62
2022/03/14 03:26:07;;;;;;;20.60;15.35;;;;;;;;;;5087199;28;20115;-62
2022/03/14 03:28:39;;;;;;;21.73;14.93;;;;;;;;;;5089120;28;20734;-62
2022/03/14 03:31:08;;;;;;;24.40;14.73;;;;;;;;;;5094316;28;20048;-61
2022/03/14 03:33:35;;;;;;;20.65;14.18;;;;;;;;;;5076840;28;20047;-62
2022/03/14 03:36:01;;;;;;;24.30;13.85;;;;;;;;;;5076624;28;20092;-62
2022/03/14 03:38:28;;;;;;;18.55;12.77;;;;;;;;;;5097963;28;20504;-62
2022/03/14 03:40:54;;;;;;;17.48;12.25;;;;;;;;;;5098238;28;20139;-61
2022/03/14 03:43:20;;;;;;;19.10;13.52;;;;;;;;;;5075301;28;20138;-62
2022/03/14 03:45:47;;;;;;;20.65;13.02;;;;;;;;;;5075199;28;20040;-62
2022/03/14 03:48:13;;;;;;;17.98;12.30;;;;;;;;;;5079213;28;20139;-62
2022/03/14 03:50:39;;;;;;;15.63;10.93;;;;;;;;;;5094474;28;20123;-62
2022/03/14 03:53:06;;;;;;;23.77;12.70;;;;;;;;;;5094222;28;20040;-62
2022/03/14 03:55:32;;;;;;;17.85;11.65;;;;;;;;;;5075853;28;20048;-62
2022/03/14 03:57:58;;;;;;;18.15;11.60;;;;;;;;;;5094441;28;20127;-62
2022/03/14 04:00:24;;;;;;;18.27;12.23;;;;;;;;;;5091945;28;20368;-62
2022/03/14 04:02:50;;;;;;;17.98;11.45;;;;;;;;;;5076227;28;20113;-62
2022/03/14 04:05:19;;;;;;;17.95;11.65;;;;;;;;;;5093249;28;20044;-62
2022/03/14 04:07:46;;;;;;;17.35;11.25;;;;;;;;;;5093524;28;20499;-62
2022/03/14 04:10:12;;;;;;;14.98;10.43;;;;;;;;;;5095455;28;20047;-62
2022/03/14 04:12:39;;;;;;;12.95;9.27;;;;;;;;;;5077812;28;20142;-62
2022/03/14 04:15:09;;;;;;;12.07;8.57;;;;;;;;;;5094829;28;20556;-62
2022/03/14 04:17:36;;;;;;;12.18;7.82;;;;;;;;;;5110548;27;20493;-62
2022/03/14 04:20:04;;;;;;;12.48;7.70;;;;;;;;;;5105137;28;20067;-61
2022/03/14 04:22:32;;;;;;;9.07;6.60;;;;;;;;;;5091900;28;20048;-62
2022/03/14 04:24:59;;;;;;;10.57;6.80;;;;;;;;;;5090468;28;20078;-62
2022/03/14 04:27:26;;;;;;;8.32;6.18;;;;;;;;;;5113826;27;20075;-62
2022/03/14 04:29:52;;;;;;;10.52;6.40;;;;;;;;;;5106178;27;20048;-62
2022/03/14 04:32:18;;;;;;;9.23;6.35;;;;;;;;;;5097873;28;20040;-62
2022/03/14 04:34:44;;;;;;;11.43;6.40;;;;;;;;;;5091368;28;20479;-62
2022/03/14 04:37:13;;;;;;;9.98;5.78;;;;;;;;;;5093572;28;20520;-62
2022/03/14 04:39:40;;;;;;;8.82;6.00;;;;;;;;;;5093744;28;20066;-62
2022/03/14 04:42:07;;;;;;;12.55;6.22;;;;;;;;;;5093238;28;20397;-62
2022/03/14 04:44:34;;;;;;;10.45;6.93;;;;;;;;;;5093368;28;20129;-62
2022/03/14 04:47:01;;;;;;;10.48;6.15;;;;;;;;;;5094937;28;20046;-62
2022/03/14 04:49:27;;;;;;;8.93;6.03;;;;;;;;;;5093159;28;20044;-62
2022/03/14 04:51:55;;;;;;;8.52;6.00;;;;;;;;;;5077414;28;20548;-62
2022/03/14 04:54:21;;;;;;;8.65;6.22;;;;;;;;;;5093343;28;20048;-62
2022/03/14 04:56:47;;;;;;;8.73;5.88;;;;;;;;;;5073782;28;20059;-62
2022/03/14 04:59:13;;;;;;;7.40;4.90;;;;;;;;;;5075853;28;20043;-62
2022/03/14 05:01:40;;;;;;;8.65;5.68;;;;;;;;;;5092270;28;20155;-62
2022/03/14 05:04:06;;;;;;;8.25;5.50;;;;;;;;;;5092961;28;20067;-62
2022/03/14 05:06:33;;;;;;;14.27;7.57;;;;;;;;;;5113968;27;20044;-62
2022/03/14 05:08:59;;;;;;;7.85;4.70;;;;;;;;;;5077495;28;20122;-62
2022/03/14 05:11:25;;;;;;;7.53;5.05;;;;;;;;;;5095756;28;20089;-62
2022/03/14 05:13:52;;;;;;;7.15;4.88;;;;;;;;;;5076097;28;20055;-62
2022/03/14 05:16:19;;;;;;;6.57;4.32;;;;;;;;;;5092513;28;20040;-62
2022/03/14 05:18:45;;;;;;;6.50;4.10;;;;;;;;;;5110768;27;20051;-62
2022/03/14 05:21:12;;;;;;;7.53;3.47;;;;;;;;;;5074339;28;20479;-62
2022/03/14 05:23:38;;;;;;;7.35;3.75;;;;;;;;;;5093968;28;20153;-62
2022/03/14 05:26:04;;;;;;;7.07;3.95;;;;;;;;;;5092705;28;20059;-62
2022/03/14 05:28:31;;;;;;;5.82;3.92;;;;;;;;;;5076621;28;20177;-62
2022/03/14 05:30:57;;;;;;;7.25;3.40;;;;;;;;;;5077596;28;20044;-62
2022/03/14 05:33:23;;;;;;;6.65;3.33;;;;;;;;;;5084840;28;20032;-62
2022/03/14 05:35:50;;;;;;;5.68;3.72;;;;;;;;;;5066791;28;20051;-62
2022/03/14 05:38:16;;;;;;;5.80;3.60;;;;;;;;;;5091098;28;20047;-62
2022/03/14 05:40:42;;;;;;;5.50;3.72;;;;;;;;;;5093167;28;20040;-62
2022/03/14 05:43:10;;;;;;;5.47;3.42;;;;;;;;;;5091895;28;20160;-62
2022/03/14 05:45:36;;;;;;;5.85;3.38;;;;;;;;;;5073620;28;20039;-62
2022/03/14 05:48:03;;;;;;;6.78;3.67;;;;;;;;;;5095842;28;20066;-63
2022/03/14 05:50:29;;;;;;;8.40;3.67;;;;;;;;;;5090501;28;20425;-61
2022/03/14 05:52:55;;;;;;;5.55;3.15;;;;;;;;;;5091263;28;20028;-61
2022/03/14 05:55:22;;;;;;;4.85;3.08;;;;;;;;;;5087346;28;20060;-62
2022/03/14 05:57:48;;;;;;;5.50;3.00;;;;;;;;;;5088223;28;20051;-62
2022/03/14 06:00:24;;;;;;;5.47;3.08;;;;;;;;;;5091677;28;20044;-62
2022/03/14 06:02:52;;;;;;;5.32;3.22;;;;;;;;;;5087451;28;20406;-61
2022/03/14 06:05:19;;;;;;;5.57;3.22;;;;;;;;;;5083178;28;20640;-61
2022/03/14 06:07:45;;;;;;;4.90;2.88;;;;;;;;;;5082516;28;20114;-62
2022/03/14 06:10:13;;;;;;;5.88;3.80;;;;;;;;;;5061084;28;20055;-62
2022/03/14 06:12:39;;;;;;;11.63;3.42;;;;;;;;;;5067829;28;20557;-62
2022/03/14 06:15:09;;;;;;;5.10;3.20;;;;;;;;;;5090843;28;20051;-62
2022/03/14 06:17:35;;;;;;;4.32;2.90;;;;;;;;;;5088381;28;20043;-62
2022/03/14 06:20:02;;;;;;;4.55;2.83;;;;;;;;;;5084259;28;20109;-62
2022/03/14 06:22:28;;;;;;;4.93;3.17;;;;;;;;;;5087284;28;20044;-62
2022/03/14 06:24:54;;;;;;;5.65;3.63;;;;;;;;;;5087867;28;20055;-62
2022/03/14 06:27:22;;;;;;;5.18;3.22;;;;;;;;;;5067748;28;20122;-78
2022/03/14 06:29:49;;;;;;;5.15;3.22;;;;;;;;;;5086037;28;20067;-63
2022/03/14 06:32:16;;;;;;;5.72;3.60;;;;;;;;;;5085751;28;20441;-62
2022/03/14 06:34:42;;;;;;;6.60;3.40;;;;;;;;;;5089340;28;20056;-63
2022/03/14 06:37:09;;;;;;;5.45;3.30;;;;;;;;;;5074292;28;20052;-63
2022/03/14 06:39:36;;;;;;;6.22;3.55;;;;;;;;;;5074006;28;20097;-63
2022/03/14 06:42:08;;;;;;;5.50;3.50;;;;;;;;;;5073690;28;20472;-63
2022/03/14 06:44:35;;;;;;;5.90;3.50;;;;;;;;;;5074271;28;20048;-63
2022/03/14 06:47:01;;;;;;;7.63;3.53;;;;;;;;;;5073446;28;20052;-63
2022/03/14 06:49:28;;;;;;;5.75;3.65;;;;;;;;;;5083356;28;20039;-63
2022/03/14 06:51:54;;;;;;;5.95;3.22;;;;;;;;;;5070164;28;20044;-63
2022/03/14 06:54:20;;;;;;;5.15;3.42;;;;;;;;;;5090187;28;20151;-63
2022/03/14 06:56:47;;;;;;;5.95;3.95;;;;;;;;;;5090742;28;20062;-63
2022/03/14 06:59:14;;;;;;;7.55;4.40;;;;;;;;;;5073125;28;20052;-63
2022/03/14 07:01:40;;;;;;;7.65;3.67;;;;;;;;;;5067335;28;20052;-63
2022/03/14 07:04:06;;;;;;;5.70;3.72;;;;;;;;;;5062516;28;20048;-63
2022/03/14 07:06:34;;;;;;;6.63;3.92;;;;;;;;;;5079805;28;20067;-63
2022/03/14 07:09:00;;;;;;;6.18;3.92;;;;;;;;;;5079104;28;20048;-63
2022/03/14 07:11:26;;;;;;;8.02;4.68;;;;;;;;;;5083436;28;20426;-63
2022/03/14 07:13:52;;;;;;;7.00;4.47;;;;;;;;;;5080471;28;20045;-63
2022/03/14 07:16:20;;;;;;;8.25;4.90;;;;;;;;;;5084893;28;20127;-63
2022/03/14 07:18:46;;;;;;;7.22;4.72;;;;;;;;;;5086334;28;20074;-63
2022/03/14 07:21:13;;;;;;;8.77;5.55;;;;;;;;;;5079551;28;20029;-63
2022/03/14 07:23:39;;;;;;;8.68;5.53;;;;;;;;;;5064535;28;20438;-63
2022/03/14 07:26:05;;;;;;;7.88;5.35;;;;;;;;;;5082891;28;20434;-64
2022/03/14 07:28:33;;;;;;;9.32;5.28;;;;;;;;;;5082240;28;20123;-63
2022/03/14 07:30:59;;;;;;;6.78;5.07;;;;;;;;;;5084535;28;20384;-63
2022/03/14 07:33:25;;;;;;;6.80;4.68;;;;;;;;;;5087225;28;20098;-63
2022/03/14 07:35:52;;;;;;;7.32;5.30;;;;;;;;;;5084064;28;20043;-63
2022/03/14 07:38:18;;;;;;;8.23;5.82;;;;;;;;;;5077628;28;20343;-63
2022/03/14 07:40:45;;;;;;;12.93;5.65;;;;;;;;;;5081986;28;20044;-63
2022/03/14 07:43:12;;;;;;;9.00;6.18;;;;;;;;;;5064060;28;20043;-63
2022/03/14 07:45:38;;;;;;;9.55;6.30;;;;;;;;;;5085596;28;20072;-63
2022/03/14 07:48:04;;;;;;;8.43;6.38;;;;;;;;;;5097228;28;20415;-63
2022/03/14 07:50:31;;;;;;;9.23;6.43;;;;;;;;;;5059221;28;20494;-63
2022/03/14 07:52:57;;;;;;;10.00;6.63;;;;;;;;;;5094599;28;20059;-63
2022/03/14 07:55:23;;;;;;;9.98;7.50;;;;;;;;;;5081089;28;20048;-63
2022/03/14 07:57:50;;;;;;;11.80;7.18;;;;;;;;;;5073714;28;20071;-63
2022/03/14 08:00:18;;;;;;;10.20;7.57;;;;;;;;;;5080900;28;20047;-63
2022/03/14 08:02:45;;;;;;;10.27;7.30;;;;;;;;;;5080742;28;20133;-63
2022/03/14 08:05:15;;;;;;;10.68;8.10;;;;;;;;;;5076809;28;20128;-63
2022/03/14 08:07:44;;;;;;;10.95;8.07;;;;;;;;;;5063429;28;20045;-63
2022/03/14 08:10:11;;;;;;;12.07;8.98;;;;;;;;;;5102864;28;20115;-63
2022/03/14 08:12:46;;;;;;;12.98;8.93;;;;;;;;;;5089157;28;20062;-63
2022/03/14 08:15:17;;;;;;;13.80;9.50;;;;;;;;;;5104119;28;20165;-63
2022/03/14 08:17:43;;;;;;;12.82;9.85;;;;;;;;;;5087641;28;20077;-63
2022/03/14 08:20:10;;;;;;;15.77;10.45;;;;;;;;;;5088712;28;20399;-63
2022/03/14 08:22:36;;;;;;;14.40;10.20;;;;;;;;;;5087898;28;20414;-63
2022/03/14 08:25:02;;;;;;;15.77;10.32;;;;;;;;;;5087681;28;20412;-63
2022/03/14 08:27:29;;;;;;;14.30;10.85;;;;;;;;;;5086605;28;20127;-62
2022/03/14 08:29:55;;;;;;;16.65;12.45;;;;;;;;;;5070358;28;20040;-63
2022/03/14 08:32:24;;;;;;;16.13;11.80;;;;;;;;;;5088100;28;20036;-63
2022/03/14 08:34:52;;;;;;;16.05;11.85;;;;;;;;;;5076693;28;20063;-63
2022/03/14 08:37:19;;;;;;;16.88;12.52;;;;;;;;;;5075185;28;20519;-63
2022/03/14 08:39:47;;;;;;;21.80;16.23;;;;;;;;;;5089987;28;20044;-63
2022/03/14 08:42:13;;;;;;;23.25;16.20;;;;;;;;;;5074210;28;20036;-62
2022/03/14 08:44:40;;;;;;;22.45;15.32;;;;;;;;;;5077657;28;20047;-63
2022/03/14 08:47:07;;;;;;;24.25;16.25;;;;;;;;;;5087522;28;20118;-63
2022/03/14 08:49:34;;;;;;;22.95;16.48;;;;;;;;;;5098204;28;20056;-63
2022/03/14 08:52:01;;;;;;;23.30;17.80;;;;;;;;;;5089363;28;20054;-62
2022/03/14 08:54:27;;;;;;;23.13;17.55;;;;;;;;;;5089787;28;20052;-62
2022/03/14 08:56:54;;;;;;;26.75;19.55;;;;;;;;;;5073762;28;20543;-63
2022/03/14 08:59:20;;;;;;;26.27;18.60;;;;;;;;;;5084543;28;20044;-62
2022/03/14 09:01:46;;;;;;;25.73;17.85;;;;;;;;;;5089280;28;20040;-63
2022/03/14 09:04:12;;;;;;;27.95;19.77;;;;;;;;;;5078116;28;20056;-63
2022/03/14 09:06:42;;;;;;;30.35;20.02;;;;;;;;;;5074824;28;20076;-62
2022/03/14 09:09:08;;;;;;;26.60;17.38;;;;;;;;;;5084821;28;20051;-62
2022/03/14 09:11:34;;;;;;;23.20;14.85;;;;;;;;;;5092528;28;20036;-62
2022/03/14 09:14:00;;;;;;;29.73;17.70;;;;;;;;;;5073952;28;20048;-63
2022/03/14 09:16:26;;;;;;;27.90;17.35;;;;;;;;;;5089951;28;20038;-63
2022/03/14 09:18:53;;;;;;;31.38;17.27;;;;;;;;;;5091987;28;20044;-62
2022/03/14 09:21:19;;;;;;;39.30;20.08;;;;;;;;;;5089326;28;20036;-62
2022/03/14 09:23:46;;;;;;;38.33;19.77;;;;;;;;;;5091017;28;20048;-62
2022/03/14 09:26:12;;;;;;;39.17;21.33;;;;;;;;;;5091692;28;20036;-63
2022/03/14 09:28:44;;;;;;;34.20;18.90;;;;;;;;;;5083954;28;20052;-62
2022/03/14 09:31:10;;;;;;;32.50;17.23;;;;;;;;;;5072769;28;20120;-62
2022/03/14 09:33:36;;;;;;;37.90;17.23;;;;;;;;;;5091622;28;20051;-63
2022/03/14 09:36:03;;;;;;;36.55;19.13;;;;;;;;;;5090904;28;20473;-63
2022/03/14 09:38:29;;;;;;;38.00;18.83;;;;;;;;;;5090928;28;20036;-63
2022/03/14 09:40:56;;;;;;;35.65;15.23;;;;;;;;;;5073219;28;20092;-63
2022/03/14 09:43:23;;;;;;;28.67;14.07;;;;;;;;;;5091208;28;20051;-63
2022/03/14 09:45:50;;;;;;;29.75;13.93;;;;;;;;;;5087137;28;20135;-63
2022/03/14 09:48:17;;;;;;;27.45;12.48;;;;;;;;;;5072979;28;20079;-63
2022/03/14 09:50:45;;;;;;;27.17;12.30;;;;;;;;;;5087711;28;20044;-63
2022/03/14 09:53:14;;;;;;;29.13;12.18;;;;;;;;;;5065369;28;20036;-63
2022/03/14 09:55:43;;;;;;;24.10;10.60;;;;;;;;;;5090361;28;20128;-63
2022/03/14 09:58:14;;;;;;;25.80;12.05;;;;;;;;;;5081573;28;20052;-62
2022/03/14 10:00:42;;;;;;;23.67;10.57;;;;;;;;;;5105188;28;20339;-63
2022/03/14 10:03:08;;;;;;;25.02;10.18;;;;;;;;;;5090133;28;20070;-63
2022/03/14 10:05:35;;;;;;;20.80;10.05;;;;;;;;;;5088253;28;20117;-63
2022/03/14 10:08:02;;;;;;;30.55;11.15;;;;;;;;;;5072477;28;20484;-63
2022/03/14 10:10:28;;;;;;;31.20;10.32;;;;;;;;;;5072296;28;20506;-63
2022/03/14 10:12:57;;;;;;;23.50;10.55;;;;;;;;;;5094986;28;20122;-63
2022/03/14 10:15:25;;;;;;;19.33;7.95;;;;;;;;;;5091656;28;20109;-63
2022/03/14 10:17:53;;;;;;;20.23;8.00;;;;;;;;;;5073023;28;20390;-62
2022/03/14 10:20:21;;;;;;;18.50;7.38;;;;;;;;;;5059204;28;20068;-62
2022/03/14 10:22:47;;;;;;;22.38;7.15;;;;;;;;;;5076423;28;20051;-63
2022/03/14 10:25:14;;;;;;;17.98;5.57;;;;;;;;;;5090746;28;20046;-63
2022/03/14 10:27:43;;;;;;;15.00;5.38;;;;;;;;;;5072817;28;20046;-63
2022/03/14 10:30:29;;;;;;;13.88;5.82;;;;;;;;;;5071732;28;20052;-63
2022/03/14 10:33:01;;;;;;;16.42;5.32;;;;;;;;;;5083415;28;20089;-63
2022/03/14 10:35:32;;;;;;;15.20;6.05;;;;;;;;;;5091260;28;20109;-63
2022/03/14 10:37:59;;;;;;;18.85;5.38;;;;;;;;;;5089443;28;20043;-63
2022/03/14 10:40:30;;;;;;;15.63;6.15;;;;;;;;;;5059127;28;20094;-63
2022/03/14 10:42:57;;;;;;;16.50;5.80;;;;;;;;;;5071930;28;20087;-63
2022/03/14 10:45:23;;;;;;;17.15;5.80;;;;;;;;;;5079474;28;20045;-62
2022/03/14 10:47:57;;;;;;;21.80;6.85;;;;;;;;;;5071583;28;20047;-63
2022/03/14 10:50:29;;;;;;;20.45;6.22;;;;;;;;;;5073146;28;20086;-63
2022/03/14 10:53:03;;;;;;;21.42;7.68;;;;;;;;;;5074082;28;20071;-63
2022/03/14 10:55:41;;;;;;;16.95;7.25;;;;;;;;;;5074328;28;20072;-62
2022/03/14 10:58:10;;;;;;;22.05;7.65;;;;;;;;;;5080389;28;20071;-63
2022/03/14 11:00:44;;;;;;;18.23;8.00;;;;;;;;;;5081704;28;20535;-62
2022/03/14 11:03:11;;;;;;;20.73;8.60;;;;;;;;;;5063747;28;20032;-63
2022/03/14 11:05:44;;;;;;;21.25;7.43;;;;;;;;;;5079719;28;20040;-63
2022/03/14 11:08:25;;;;;;;23.63;8.70;;;;;;;;;;5086134;28;20120;-63
2022/03/14 11:10:51;;;;;;;24.42;8.30;;;;;;;;;;5098749;28;20047;-63
2022/03/14 11:13:18;;;;;;;23.02;8.98;;;;;;;;;;5072427;28;20121;-63
2022/03/14 11:15:45;;;;;;;22.50;9.45;;;;;;;;;;5069969;28;20048;-63
2022/03/14 11:18:11;;;;;;;23.17;10.10;;;;;;;;;;5072558;28;20052;-63
2022/03/14 11:20:38;;;;;;;22.65;9.95;;;;;;;;;;5090362;28;20107;-63
2022/03/14 11:23:05;;;;;;;22.65;10.82;;;;;;;;;;5085519;28;20105;-63
2022/03/14 11:25:32;;;;;;;26.48;10.55;;;;;;;;;;5069854;28;20068;-63
2022/03/14 11:28:00;;;;;;;25.02;12.07;;;;;;;;;;5100180;28;20079;-63
2022/03/14 11:30:27;;;;;;;30.00;12.15;;;;;;;;;;5092047;28;20097;-61
2022/03/14 11:32:54;;;;;;;29.05;12.60;;;;;;;;;;5062206;28;20039;-72
2022/03/14 11:35:20;;;;;;;31.60;13.27;;;;;;;;;;5079433;28;20032;-63
2022/03/14 11:37:47;;;;;;;26.35;13.05;;;;;;;;;;5089584;28;20032;-63
2022/03/14 11:40:14;;;;;;;26.45;12.27;;;;;;;;;;5089940;28;20557;-63
2022/03/14 11:42:40;;;;;;;27.85;12.00;;;;;;;;;;5081466;28;20058;-63
2022/03/14 11:45:07;;;;;;;34.00;12.80;;;;;;;;;;5088606;28;20069;-63
2022/03/14 11:47:34;;;;;;;31.30;13.57;;;;;;;;;;5079876;28;20048;-63
2022/03/14 11:50:04;;;;;;;38.97;13.98;;;;;;;;;;5083515;28;20120;-63
2022/03/14 11:52:40;;;;;;;34.33;12.93;;;;;;;;;;5084137;28;20046;-63
2022/03/14 11:55:18;;;;;;;33.50;13.15;;;;;;;;;;5106183;28;20139;-63
2022/03/14 11:57:45;;;;;;;28.67;12.10;;;;;;;;;;5055812;28;20479;-63
2022/03/14 12:00:22;;;;;;;31.33;13.10;;;;;;;;;;5075159;28;20604;-63
2022/03/14 12:02:49;;;;;;;24.75;12.48;;;;;;;;;;5061064;28;20036;-63
2022/03/14 12:05:21;;;;;;;29.65;13.10;;;;;;;;;;5079894;28;20047;-63
2022/03/14 12:07:47;;;;;;;28.25;11.20;;;;;;;;;;5090674;28;20040;-63
2022/03/14 12:10:31;;;;;;;28.40;10.77;;;;;;;;;;5077002;28;20048;-62
2022/03/14 12:12:58;;;;;;;22.45;10.05;;;;;;;;;;5077767;28;20078;-62
2022/03/14 12:15:38;;;;;;;27.80;10.93;;;;;;;;;;5081950;28;20070;-63
2022/03/14 12:18:24;;;;;;;27.17;10.45;;;;;;;;;;5085590;28;20062;-63
2022/03/14 12:20:50;;;;;;;40.17;10.13;;;;;;;;;;5067118;28;20040;-62
2022/03/14 12:23:21;;;;;;;23.38;9.25;;;;;;;;;;5087964;28;20036;-63
2022/03/14 12:25:48;;;;;;;22.50;9.07;;;;;;;;;;5088159;28;20032;-63
2022/03/14 12:28:23;;;;;;;25.33;8.48;;;;;;;;;;5100367;27;20066;-63
2022/03/14 12:30:50;;;;;;;21.20;8.40;;;;;;;;;;5087277;28;20041;-62
2022/03/14 12:33:32;;;;;;;25.50;8.40;;;;;;;;;;5087936;28;20475;-63
2022/03/14 12:36:01;;;;;;;22.75;7.97;;;;;;;;;;5061219;28;20052;-63
2022/03/14 12:38:28;;;;;;;16.23;7.43;;;;;;;;;;5067190;28;20047;-63
2022/03/14 12:40:56;;;;;;;18.50;8.25;;;;;;;;;;5076332;28;21652;-62
2022/03/14 12:43:25;;;;;;;21.65;8.30;;;;;;;;;;5097821;28;20131;-63
2022/03/14 12:45:53;;;;;;;20.25;8.63;;;;;;;;;;5098148;28;20100;-63
2022/03/14 12:48:21;;;;;;;19.02;8.98;;;;;;;;;;5074585;28;20495;-63
2022/03/14 12:50:48;;;;;;;20.17;7.85;;;;;;;;;;5088702;28;20044;-63
2022/03/14 12:53:29;;;;;;;17.02;7.03;;;;;;;;;;5091111;28;20048;-63
2022/03/14 12:55:56;;;;;;;20.60;6.97;;;;;;;;;;5038208;28;20056;-63
2022/03/14 12:58:23;;;;;;;19.17;6.90;;;;;;;;;;5037968;28;20073;-63
2022/03/14 13:00:52;;;;;;;13.98;6.15;;;;;;;;;;5045127;28;20453;-63
2022/03/14 13:03:19;;;;;;;17.13;5.78;;;;;;;;;;5052955;28;20072;-63
2022/03/14 13:05:45;;;;;;;20.02;6.97;;;;;;;;;;5053161;28;20041;-63
2022/03/14 13:08:12;;;;;;;23.70;6.57;;;;;;;;;;5048710;28;20051;-62
2022/03/14 13:10:39;;;;;;;18.30;7.95;;;;;;;;;;5052236;28;20049;-62
2022/03/14 13:13:08;;;;;;;21.40;6.97;;;;;;;;;;5047894;28;20045;-63
2022/03/14 13:15:36;;;;;;;17.52;5.80;;;;;;;;;;5048645;28;20115;-63
2022/03/14 13:18:03;;;;;;;24.08;6.55;;;;;;;;;;5048433;28;20045;-62
2022/03/14 13:20:31;;;;;;;19.73;6.38;;;;;;;;;;5045671;28;20356;-63
2022/03/14 13:22:58;;;;;;;19.80;6.03;;;;;;;;;;5052147;28;20044;-63
2022/03/14 13:25:31;;;;;;;20.40;5.38;;;;;;;;;;5053042;28;20060;-62
2022/03/14 13:27:57;;;;;;;17.20;5.00;;;;;;;;;;5056701;28;20032;-62
2022/03/14 13:30:23;;;;;;;21.48;4.63;;;;;;;;;;5075582;28;20499;-63
2022/03/14 13:32:49;;;;;;;15.45;6.35;;;;;;;;;;5054842;28;20499;-63
2022/03/14 13:35:16;;;;;;;21.15;5.43;;;;;;;;;;5046767;28;20384;-62
2022/03/14 13:37:46;;;;;;;17.23;4.85;;;;;;;;;;5050499;28;20422;-63
2022/03/14 13:40:19;;;;;;;19.13;5.20;;;;;;;;;;5056441;28;20094;-62
2022/03/14 13:42:46;;;;;;;20.75;5.85;;;;;;;;;;5051736;28;20072;-63
2022/03/14 13:45:13;;;;;;;15.00;4.85;;;;;;;;;;5052805;28;20492;-62
2022/03/14 13:47:40;;;;;;;22.50;5.30;;;;;;;;;;5049405;28;20044;-63
2022/03/14 13:50:07;;;;;;;20.55;5.10;;;;;;;;;;5053590;28;20071;-63
2022/03/14 13:52:33;;;;;;;22.08;5.45;;;;;;;;;;5051306;28;20108;-62
2022/03/14 13:54:59;;;;;;;19.05;5.20;;;;;;;;;;5064574;28;20502;-63
2022/03/14 13:57:25;;;;;;;18.65;4.70;;;;;;;;;;5070681;28;20483;-63
2022/03/14 13:59:52;;;;;;;25.60;5.72;;;;;;;;;;5063412;28;20045;-63
2022/03/14 14:02:20;;;;;;;17.08;4.93;;;;;;;;;;5063879;28;20131;-63
2022/03/14 14:04:47;;;;;;;13.93;4.97;;;;;;;;;;5064345;28;20504;-63
2022/03/14 14:07:14;;;;;;;15.40;5.60;;;;;;;;;;5068020;28;20480;-63
2022/03/14 14:09:41;;;;;;;15.77;4.93;;;;;;;;;;5066400;28;20079;-63
2022/03/14 14:12:19;;;;;;;14.85;5.65;;;;;;;;;;5067154;28;20430;-62
2022/03/14 14:14:50;;;;;;;17.50;4.70;;;;;;;;;;5068156;28;20066;-63
2022/03/14 14:17:17;;;;;;;18.85;5.28;;;;;;;;;;5066391;28;20037;-63
2022/03/14 14:20:03;;;;;;;21.00;5.22;;;;;;;;;;5068747;28;20087;-63
2022/03/14 14:22:34;;;;;;;17.00;4.18;;;;;;;;;;5066433;28;20052;-63
2022/03/14 14:25:01;;;;;;;17.52;4.30;;;;;;;;;;5065522;28;20086;-63
2022/03/14 14:27:28;;;;;;;15.15;4.82;;;;;;;;;;5068110;28;20032;-62